Time,TemperatureF,DewpointF,PressureIn,WindDirection,WindDirectionDegrees,WindSpeedMPH,WindSpeedGustMPH,Humidity,HourlyPrecipIn,Conditions,Clouds,dailyrainin,SoftwareType,DateUTC
2013-03-30 00:04:00,39.0,37.7,30.02,South,180,0.0,-999.0,95,-99.99,,,0.00,Acu-Link.com,2013-03-30 04:04:00,
2013-03-30 00:19:00,38.5,37.2,30.01,SSW,202,0.0,-999.0,95,-99.99,,,0.00,Acu-Link.com,2013-03-30 04:19:00,
2013-03-30 00:35:00,38.5,37.7,30.01,SSW,202,0.0,-999.0,97,-99.99,,,0.00,Acu-Link.com,2013-03-30 04:35:00,
2013-03-30 00:50:00,37.8,37.0,30.00,SSW,202,0.0,-999.0,97,-99.99,,,0.00,Acu-Link.com,2013-03-30 04:50:00,
2013-03-30 01:05:00,37.0,36.2,30.00,SW,225,0.0,-999.0,97,-99.99,,,0.00,Acu-Link.com,2013-03-30 05:05:00,
2013-03-30 01:21:00,36.9,36.4,30.01,WSW,247,0.0,-999.0,98,-99.99,,,0.00,Acu-Link.com,2013-03-30 05:21:00,
2013-03-30 01:51:00,36.0,35.5,30.00,SSW,202,0.0,-999.0,98,-99.99,,,0.00,Acu-Link.com,2013-03-30 05:51:00,
2013-03-30 02:06:00,35.6,35.3,30.00,SSW,202,0.0,-999.0,99,-99.99,,,0.00,Acu-Link.com,2013-03-30 06:06:00,
2013-03-30 02:22:00,35.1,34.6,30.00,WNW,292,0.0,-999.0,98,-99.99,,,0.00,Acu-Link.com,2013-03-30 06:22:00,
2013-03-30 02:37:00,35.4,35.1,30.00,SSW,202,0.0,-999.0,99,-99.99,,,0.00,Acu-Link.com,2013-03-30 06:37:00,
2013-03-30 02:52:00,34.7,34.4,30.00,East,90,0.0,-999.0,99,-99.99,,,0.00,Acu-Link.com,2013-03-30 06:52:00,
2013-03-30 03:07:00,35.1,34.8,30.00,West,270,0.0,-999.0,99,-99.99,,,0.00,Acu-Link.com,2013-03-30 07:07:00,
2013-03-30 03:23:00,34.9,34.6,30.00,SSW,202,0.0,-999.0,99,-99.99,,,0.00,Acu-Link.com,2013-03-30 07:23:00,
2013-03-30 03:38:00,33.6,33.3,30.00,NNE,22,0.0,-999.0,99,-99.99,,,0.00,Acu-Link.com,2013-03-30 07:38:00,
2013-03-30 03:53:00,33.3,33.0,30.00,SW,225,0.0,-999.0,99,-99.99,,,0.00,Acu-Link.com,2013-03-30 07:53:00,
2013-03-30 04:09:00,33.3,33.0,29.99,NNE,22,0.0,-999.0,99,-99.99,,,0.00,Acu-Link.com,2013-03-30 08:09:00,
2013-03-30 04:24:00,32.9,32.7,30.00,NW,315,0.0,-999.0,99,-99.99,,,0.00,Acu-Link.com,2013-03-30 08:24:00,
2013-03-30 04:39:00,33.3,33.0,29.99,SSE,157,0.0,-999.0,99,-99.99,,,0.00,Acu-Link.com,2013-03-30 08:39:00,
2013-03-30 04:54:00,32.5,32.3,29.99,SSE,157,0.0,-999.0,99,-99.99,,,0.00,Acu-Link.com,2013-03-30 08:54:00,
2013-03-30 05:09:00,31.6,31.4,29.99,NW,315,0.0,-999.0,99,-99.99,,,0.00,Acu-Link.com,2013-03-30 09:09:00,
2013-03-30 05:25:00,31.3,31.1,29.99,West,270,0.0,-999.0,99,-99.99,,,0.00,Acu-Link.com,2013-03-30 09:25:00,
2013-03-30 05:40:00,31.1,30.9,29.98,SSE,157,0.0,-999.0,99,-99.99,,,0.00,Acu-Link.com,2013-03-30 09:40:00,
2013-03-30 06:10:00,31.3,31.1,29.99,SSW,202,0.0,-999.0,99,-99.99,,,0.00,Acu-Link.com,2013-03-30 10:10:00,
2013-03-30 06:26:00,30.4,30.2,29.99,SSW,202,0.0,-999.0,99,-99.99,,,0.00,Acu-Link.com,2013-03-30 10:26:00,
2013-03-30 06:56:00,30.7,30.5,30.01,WNW,292,0.0,-999.0,99,-99.99,,,0.00,Acu-Link.com,2013-03-30 10:56:00,
2013-03-30 07:12:00,30.6,30.4,30.01,WNW,292,0.0,-999.0,99,-99.99,,,0.00,Acu-Link.com,2013-03-30 11:12:00,
2013-03-30 07:27:00,30.0,29.8,30.02,WNW,292,0.0,-999.0,99,-99.99,,,0.00,Acu-Link.com,2013-03-30 11:27:00,
2013-03-30 07:42:00,30.7,30.5,30.02,West,270,0.0,-999.0,99,-99.99,,,0.00,Acu-Link.com,2013-03-30 11:42:00,
2013-03-30 07:57:00,31.5,31.3,30.02,SSW,202,0.0,-999.0,99,-99.99,,,0.00,Acu-Link.com,2013-03-30 11:57:00,
2013-03-30 08:13:00,32.0,31.8,30.02,South,180,0.0,-999.0,99,-99.99,,,0.00,Acu-Link.com,2013-03-30 12:13:00,
2013-03-30 08:43:00,33.8,33.5,30.01,NE,45,2.7,-999.0,99,-99.99,,,0.00,Acu-Link.com,2013-03-30 12:43:00,
2013-03-30 08:58:00,35.6,35.3,30.00,SE,135,1.1,-999.0,99,-99.99,,,0.00,Acu-Link.com,2013-03-30 12:58:00,
2013-03-30 09:14:00,38.3,38.0,30.01,ESE,112,2.7,-999.0,99,-99.99,,,0.00,Acu-Link.com,2013-03-30 13:14:00,
2013-03-30 09:29:00,40.3,40.0,30.00,NW,315,1.7,-999.0,99,-99.99,,,0.00,Acu-Link.com,2013-03-30 13:29:00,
2013-03-30 09:44:00,42.4,40.8,29.99,SE,135,1.1,-999.0,94,-99.99,,,0.00,Acu-Link.com,2013-03-30 13:44:00,
2013-03-30 09:59:00,44.4,41.7,30.00,WSW,247,1.1,-999.0,90,-99.99,,,0.00,Acu-Link.com,2013-03-30 13:59:00,
2013-03-30 10:15:00,46.0,42.6,30.00,East,90,3.2,-999.0,88,-99.99,,,0.00,Acu-Link.com,2013-03-30 14:15:00,
2013-03-30 10:30:00,46.4,42.4,29.98,SE,135,3.2,-999.0,86,-99.99,,,0.00,Acu-Link.com,2013-03-30 14:30:00,
2013-03-30 10:45:00,47.7,43.1,29.98,SSE,157,2.7,-999.0,84,-99.99,,,0.00,Acu-Link.com,2013-03-30 14:45:00,
2013-03-30 11:00:00,47.7,43.1,29.98,South,180,4.7,-999.0,84,-99.99,,,0.00,Acu-Link.com,2013-03-30 15:00:00,
2013-03-30 11:15:00,49.5,42.9,29.97,SSW,202,2.2,-999.0,78,-99.99,,,0.00,Acu-Link.com,2013-03-30 15:15:00,
2013-03-30 11:31:00,50.7,42.7,29.98,South,180,1.7,-999.0,74,-99.99,,,0.00,Acu-Link.com,2013-03-30 15:31:00,
2013-03-30 12:01:00,53.6,43.3,29.97,ESE,112,3.2,-999.0,68,-99.99,,,0.00,Acu-Link.com,2013-03-30 16:01:00,
2013-03-30 12:32:00,56.1,42.4,29.95,SSE,157,3.7,-999.0,60,-99.99,,,0.00,Acu-Link.com,2013-03-30 16:32:00,
2013-03-30 12:47:00,55.6,41.1,29.94,ESE,112,3.7,-999.0,58,-99.99,,,0.00,Acu-Link.com,2013-03-30 16:47:00,
2013-03-30 13:02:00,56.7,40.2,29.94,SSE,157,5.8,-999.0,54,-99.99,,,0.00,Acu-Link.com,2013-03-30 17:02:00,
2013-03-30 13:17:00,57.4,37.3,29.93,SW,225,6.3,-999.0,47,-99.99,,,0.00,Acu-Link.com,2013-03-30 17:17:00,
2013-03-30 13:32:00,55.9,33.7,29.92,SSW,202,6.8,-999.0,43,-99.99,,,0.00,Acu-Link.com,2013-03-30 17:32:00,
2013-03-30 13:48:00,57.7,36.5,29.91,SSE,157,5.8,-999.0,45,-99.99,,,0.00,Acu-Link.com,2013-03-30 17:48:00,
2013-03-30 14:03:00,58.6,35.6,29.90,NE,45,3.2,-999.0,42,-99.99,,,0.00,Acu-Link.com,2013-03-30 18:03:00,
2013-03-30 14:18:00,57.9,36.1,29.89,SSW,202,5.3,-999.0,44,-99.99,,,0.00,Acu-Link.com,2013-03-30 18:18:00,
2013-03-30 14:33:00,58.8,35.8,29.89,ESE,112,6.8,-999.0,42,-99.99,,,0.00,Acu-Link.com,2013-03-30 18:33:00,
2013-03-30 14:48:00,59.2,36.1,29.88,SSE,157,3.2,-999.0,42,-99.99,,,0.00,Acu-Link.com,2013-03-30 18:48:00,
2013-03-30 15:04:00,60.1,36.3,29.87,SE,135,4.7,-999.0,41,-99.99,,,0.00,Acu-Link.com,2013-03-30 19:04:00,
2013-03-30 15:19:00,59.9,36.1,29.87,South,180,3.7,-999.0,41,-99.99,,,0.00,Acu-Link.com,2013-03-30 19:19:00,
2013-03-30 15:34:00,59.7,35.3,29.86,South,180,4.2,-999.0,40,-99.99,,,0.00,Acu-Link.com,2013-03-30 19:34:00,
2013-03-30 15:49:00,60.6,34.9,29.85,South,180,5.3,-999.0,38,-99.99,,,0.00,Acu-Link.com,2013-03-30 19:49:00,
2013-03-30 16:04:00,59.7,32.7,29.85,South,180,6.3,-999.0,36,-99.99,,,0.00,Acu-Link.com,2013-03-30 20:04:00,
2013-03-30 16:20:00,59.4,34.4,29.84,South,180,2.7,-999.0,39,-99.99,,,0.00,Acu-Link.com,2013-03-30 20:20:00,
2013-03-30 16:35:00,59.2,33.6,29.84,South,180,2.2,-999.0,38,-99.99,,,0.00,Acu-Link.com,2013-03-30 20:35:00,
2013-03-30 16:50:00,59.2,34.3,29.83,South,180,3.7,-999.0,39,-99.99,,,0.00,Acu-Link.com,2013-03-30 20:50:00,
2013-03-30 17:05:00,59.7,34.7,29.82,SSE,157,6.3,-999.0,39,-99.99,,,0.00,Acu-Link.com,2013-03-30 21:05:00,
2013-03-30 17:36:00,60.4,36.0,29.81,WSW,247,4.7,-999.0,40,-99.99,,,0.00,Acu-Link.com,2013-03-30 21:36:00,
2013-03-30 17:51:00,60.3,36.5,29.81,SSE,157,3.7,-999.0,41,-99.99,,,0.00,Acu-Link.com,2013-03-30 21:51:00,
2013-03-30 18:22:00,59.0,36.5,29.80,South,180,5.3,-999.0,43,-99.99,,,0.00,Acu-Link.com,2013-03-30 22:22:00,
2013-03-30 18:37:00,58.1,38.0,29.80,SW,225,2.7,-999.0,47,-99.99,,,0.00,Acu-Link.com,2013-03-30 22:37:00,
2013-03-30 18:52:00,57.4,38.4,29.80,SE,135,4.2,-999.0,49,-99.99,,,0.00,Acu-Link.com,2013-03-30 22:52:00,
2013-03-30 19:23:00,55.9,38.0,29.79,SSE,157,5.3,-999.0,51,-99.99,,,0.00,Acu-Link.com,2013-03-30 23:23:00,
2013-03-30 19:38:00,55.0,38.2,29.78,SSE,157,4.7,-999.0,53,-99.99,,,0.00,Acu-Link.com,2013-03-30 23:38:00,
2013-03-30 19:53:00,54.9,38.6,29.78,WSW,247,2.7,-999.0,54,-99.99,,,0.00,Acu-Link.com,2013-03-30 23:53:00,
2013-03-30 20:09:00,54.1,38.8,29.78,SSW,202,2.2,-999.0,56,-99.99,,,0.00,Acu-Link.com,2013-03-31 00:09:00,
2013-03-30 20:24:00,53.8,39.4,29.78,SSW,202,2.2,-999.0,58,-99.99,,,0.00,Acu-Link.com,2013-03-31 00:24:00,
2013-03-30 20:39:00,53.2,39.7,29.77,South,180,2.2,-999.0,60,-99.99,,,0.00,Acu-Link.com,2013-03-31 00:39:00,
2013-03-30 20:54:00,52.9,39.8,29.77,South,180,1.1,-999.0,61,-99.99,,,0.00,Acu-Link.com,2013-03-31 00:54:00,
2013-03-30 21:09:00,52.3,39.7,29.77,WSW,247,0.0,-999.0,62,-99.99,,,0.00,Acu-Link.com,2013-03-31 01:09:00,
2013-03-30 21:25:00,52.0,39.8,29.76,South,180,0.0,-999.0,63,-99.99,,,0.00,Acu-Link.com,2013-03-31 01:25:00,
2013-03-30 21:40:00,51.8,39.6,29.76,SSW,202,0.0,-999.0,63,-99.99,,,0.00,Acu-Link.com,2013-03-31 01:40:00,
2013-03-30 21:55:00,51.4,39.6,29.75,SSE,157,2.7,-999.0,64,-99.99,,,0.00,Acu-Link.com,2013-03-31 01:55:00,
2013-03-30 22:11:00,51.6,39.8,29.75,SSE,157,1.7,-999.0,64,-99.99,,,0.00,Acu-Link.com,2013-03-31 02:11:00,
2013-03-30 22:26:00,51.3,39.9,29.75,South,180,0.0,-999.0,65,-99.99,,,0.00,Acu-Link.com,2013-03-31 02:26:00,
2013-03-30 22:57:00,51.3,39.9,29.75,South,180,1.7,-999.0,65,-99.99,,,0.00,Acu-Link.com,2013-03-31 02:57:00,
2013-03-30 23:12:00,50.7,40.1,29.74,SE,135,0.0,-999.0,67,-99.99,,,0.00,Acu-Link.com,2013-03-31 03:12:00,
2013-03-30 23:27:00,51.1,40.1,29.74,SSE,157,1.7,-999.0,66,-99.99,,,0.00,Acu-Link.com,2013-03-31 03:27:00,
2013-03-30 23:42:00,51.3,40.3,29.74,SSW,202,2.7,-999.0,66,-99.99,,,0.00,Acu-Link.com,2013-03-31 03:42:00,
2013-03-30 23:58:00,51.1,40.1,29.73,South,180,1.7,-999.0,66,-99.99,,,0.00,Acu-Link.com,2013-03-31 03:58:00,